createdAt,value
2023-12-18T00:00:55.502Z,61.95
2023-12-18T00:01:55.332Z,61.43
2023-12-18T00:02:55.399Z,62.44
2023-12-18T00:03:55.599Z,61.69
2023-12-18T00:04:55.443Z,59.38
2023-12-18T00:05:55.436Z,61.12
2023-12-18T00:06:55.461Z,62.14
2023-12-18T00:07:55.503Z,60.87
2023-12-18T00:08:55.536Z,61.26
2023-12-18T00:09:55.564Z,60.99
2023-12-18T00:10:55.581Z,60.92
2023-12-18T00:11:55.610Z,62.24
2023-12-18T00:12:55.639Z,62.37
2023-12-18T00:13:55.680Z,63.40
2023-12-18T00:14:55.694Z,62.06
2023-12-18T00:15:55.736Z,60.42
2023-12-18T00:16:55.760Z,61.25
2023-12-18T00:17:55.987Z,63.14
2023-12-18T00:18:56.128Z,61.58
2023-12-18T00:19:55.859Z,63.37
2023-12-18T00:20:55.909Z,64.79
2023-12-18T00:21:55.918Z,61.54
2023-12-18T00:22:55.947Z,61.11
2023-12-18T00:23:55.982Z,61.79
2023-12-18T00:24:56.013Z,63.71
2023-12-18T00:25:56.055Z,62.22
2023-12-18T00:26:56.081Z,64.45
2023-12-18T00:27:56.155Z,59.51
2023-12-18T00:28:56.119Z,62.64
2023-12-18T00:29:56.148Z,63.99
2023-12-18T00:30:56.293Z,61.55
2023-12-18T00:31:56.216Z,60.44
2023-12-18T00:32:56.281Z,62.37
2023-12-18T00:33:56.511Z,64.73
2023-12-18T00:34:56.371Z,63.23
2023-12-18T00:35:56.330Z,62.69
2023-12-18T00:36:56.337Z,63.78
2023-12-18T00:37:56.359Z,63.33
2023-12-18T00:38:56.389Z,62.32
2023-12-18T00:39:56.424Z,61.99
2023-12-18T00:40:56.435Z,64.00
2023-12-18T00:41:56.464Z,60.66
2023-12-18T00:42:56.484Z,63.96
2023-12-18T00:43:56.517Z,64.45
2023-12-18T00:44:56.550Z,62.59
2023-12-18T00:45:56.557Z,61.57
2023-12-18T00:46:56.585Z,63.81
2023-12-18T00:47:56.731Z,62.74
2023-12-18T00:48:56.790Z,61.49
2023-12-18T00:49:56.891Z,61.78
2023-12-18T00:50:56.687Z,62.97
2023-12-18T00:51:56.718Z,62.01
2023-12-18T00:52:56.732Z,61.43
2023-12-18T00:53:56.763Z,62.68
2023-12-18T00:54:56.779Z,61.46
2023-12-18T00:55:56.872Z,62.39
2023-12-18T00:56:56.828Z,63.52
2023-12-18T00:57:56.908Z,62.01
2023-12-18T00:58:56.882Z,64.74
2023-12-18T00:59:56.907Z,60.55
2023-12-18T01:00:56.987Z,63.83
2023-12-18T01:01:56.975Z,61.87
2023-12-18T01:02:57.006Z,62.61
2023-12-18T01:03:57.138Z,63.30
2023-12-18T01:04:57.074Z,60.71
2023-12-18T01:05:57.076Z,63.70
2023-12-18T01:06:57.099Z,62.83
2023-12-18T01:07:57.128Z,62.47
2023-12-18T01:08:57.152Z,62.53
2023-12-18T01:09:57.180Z,60.05
2023-12-18T01:10:57.196Z,63.01
2023-12-18T01:11:57.236Z,62.69
2023-12-18T01:12:57.249Z,62.35
2023-12-18T01:13:57.277Z,63.92
2023-12-18T01:14:57.310Z,63.91
2023-12-18T01:15:57.369Z,62.49
2023-12-18T01:16:57.371Z,63.07
2023-12-18T01:17:57.431Z,63.28
2023-12-18T01:18:57.586Z,63.67
2023-12-18T01:19:57.476Z,62.11
2023-12-18T01:20:57.480Z,63.18
2023-12-18T01:21:57.514Z,63.49
2023-12-18T01:23:03.995Z,63.06
2023-12-18T01:23:58.559Z,63.15
2023-12-18T01:24:57.550Z,63.29
2023-12-18T01:25:57.545Z,63.46
2023-12-18T01:26:57.552Z,63.55
2023-12-18T01:27:57.557Z,63.99
2023-12-18T01:28:57.564Z,61.38
2023-12-18T01:29:57.565Z,62.79
2023-12-18T01:30:57.626Z,63.30
2023-12-18T01:31:57.558Z,62.43
2023-12-18T01:32:57.651Z,61.39
2023-12-18T01:33:57.624Z,61.89
2023-12-18T01:34:57.574Z,61.98
2023-12-18T01:35:57.578Z,63.37
2023-12-18T01:36:57.590Z,63.82
2023-12-18T01:37:57.594Z,61.78
2023-12-18T01:38:57.597Z,61.21
2023-12-18T01:39:57.604Z,62.82
2023-12-18T01:40:57.602Z,62.81
2023-12-18T01:41:57.606Z,64.45
2023-12-18T01:42:57.592Z,63.15
2023-12-18T01:43:57.609Z,62.53
2023-12-18T01:44:57.582Z,63.07
2023-12-18T01:45:57.623Z,61.58
2023-12-18T01:46:57.646Z,63.84
2023-12-18T01:47:57.741Z,61.60
2023-12-18T01:48:57.835Z,62.83
2023-12-18T01:49:57.718Z,60.13
2023-12-18T01:50:57.749Z,62.23
2023-12-18T01:51:57.776Z,61.68
2023-12-18T01:52:57.814Z,62.87
2023-12-18T01:53:57.848Z,62.16
2023-12-18T01:54:57.883Z,63.09
2023-12-18T01:55:57.904Z,61.45
2023-12-18T01:56:57.921Z,60.43
2023-12-18T01:57:57.973Z,64.07
2023-12-18T01:58:57.981Z,60.99
2023-12-18T01:59:58.086Z,62.44
2023-12-18T02:00:58.197Z,63.11
2023-12-18T02:01:58.081Z,62.68
2023-12-18T02:02:58.118Z,61.28
2023-12-18T02:03:58.281Z,61.79
2023-12-18T02:04:58.186Z,63.13
2023-12-18T02:05:58.168Z,62.39
2023-12-18T02:06:58.200Z,61.25
2023-12-18T02:07:58.225Z,63.14
2023-12-18T02:08:58.276Z,60.92
2023-12-18T02:09:58.287Z,61.88
2023-12-18T02:10:58.313Z,62.56
2023-12-18T02:11:58.341Z,61.94
2023-12-18T02:12:58.367Z,62.55
2023-12-18T02:13:58.404Z,63.57
2023-12-18T02:14:58.493Z,60.83
2023-12-18T02:15:58.467Z,60.61
2023-12-18T02:16:58.495Z,60.20
2023-12-18T02:17:58.556Z,61.81
2023-12-18T02:18:58.632Z,60.99
2023-12-18T02:19:58.584Z,60.10
2023-12-18T02:20:58.612Z,61.06
2023-12-18T02:21:58.672Z,60.12
2023-12-18T02:22:58.670Z,61.88
2023-12-18T02:23:58.723Z,61.86
2023-12-18T02:24:58.727Z,60.86
2023-12-18T02:25:58.774Z,63.79
2023-12-18T02:26:58.799Z,62.68
2023-12-18T02:27:58.829Z,61.61
2023-12-18T02:28:58.858Z,61.86
2023-12-18T02:29:58.895Z,61.51
2023-12-18T02:30:59.005Z,62.03
2023-12-18T02:31:58.960Z,59.50
2023-12-18T02:32:59.070Z,60.80
2023-12-18T02:33:59.247Z,63.40
2023-12-18T02:34:59.203Z,63.16
2023-12-18T02:35:59.067Z,63.12
2023-12-18T02:36:59.099Z,61.27
2023-12-18T02:37:59.136Z,62.84
2023-12-18T02:38:59.150Z,62.98
2023-12-18T02:39:59.176Z,60.92
2023-12-18T02:40:59.214Z,62.25
2023-12-18T02:41:59.306Z,61.39
2023-12-18T02:42:59.284Z,62.64
2023-12-18T02:43:59.320Z,63.07
2023-12-18T02:44:59.346Z,62.34
2023-12-18T02:45:59.373Z,62.22
2023-12-18T02:46:59.410Z,62.31
2023-12-18T02:47:59.441Z,61.84
2023-12-18T02:48:59.544Z,62.16
2023-12-18T02:49:59.481Z,61.73
2023-12-18T02:50:59.512Z,61.47
2023-12-18T02:51:59.537Z,61.07
2023-12-18T02:52:59.562Z,61.87
2023-12-18T02:53:59.600Z,61.10
2023-12-18T02:54:59.649Z,59.31
2023-12-18T02:55:59.659Z,60.96
2023-12-18T02:56:59.690Z,60.06
2023-12-18T02:57:59.730Z,61.97
2023-12-18T02:58:59.777Z,61.76
2023-12-18T02:59:59.817Z,61.17
2023-12-18T03:00:59.900Z,58.88
2023-12-18T03:01:59.876Z,60.55
2023-12-18T03:02:59.927Z,60.51
2023-12-18T03:04:00.003Z,61.46
2023-12-18T03:04:59.993Z,62.45
2023-12-18T03:06:00.005Z,62.17
2023-12-18T03:07:00.044Z,63.25
2023-12-18T03:08:00.080Z,62.26
2023-12-18T03:09:00.101Z,61.01
2023-12-18T03:10:00.173Z,60.69
2023-12-18T03:11:00.178Z,61.97
2023-12-18T03:12:00.234Z,60.51
2023-12-18T03:13:00.246Z,60.82
2023-12-18T03:14:00.280Z,62.59
2023-12-18T03:15:00.342Z,59.64
2023-12-18T03:16:00.444Z,59.87
2023-12-18T03:17:00.380Z,60.04
2023-12-18T03:18:00.549Z,61.33
2023-12-18T03:19:00.600Z,61.50
2023-12-18T03:20:00.518Z,58.88
2023-12-18T03:21:00.570Z,61.35
2023-12-18T03:22:00.586Z,61.46
2023-12-18T03:23:00.605Z,57.99
2023-12-18T03:24:00.644Z,61.62
2023-12-18T03:25:00.677Z,61.13
2023-12-18T03:26:00.699Z,61.56
2023-12-18T03:27:00.737Z,58.19
2023-12-18T03:28:00.797Z,61.50
2023-12-18T03:29:00.821Z,61.20
2023-12-18T03:30:00.843Z,61.93
2023-12-18T03:31:00.936Z,60.32
2023-12-18T03:32:00.902Z,59.62
2023-12-18T03:33:01.144Z,61.18
2023-12-18T03:34:01.049Z,62.82
2023-12-18T03:35:01.019Z,61.58
2023-12-18T03:36:01.059Z,62.76
2023-12-18T03:37:01.188Z,61.89
2023-12-18T03:38:01.110Z,62.36
2023-12-18T03:39:01.193Z,62.68
2023-12-18T03:40:01.189Z,62.47
2023-12-18T03:41:01.202Z,63.20
2023-12-18T03:42:01.235Z,63.33
2023-12-18T03:43:01.273Z,62.85
2023-12-18T03:44:01.305Z,65.10
2023-12-18T03:45:01.330Z,63.84
2023-12-18T03:46:01.349Z,60.77
2023-12-18T03:47:02.302Z,63.50
2023-12-18T03:48:01.520Z,62.14
2023-12-18T03:49:01.495Z,63.62
2023-12-18T03:50:01.574Z,64.00
2023-12-18T03:51:01.511Z,62.21
2023-12-18T03:52:01.539Z,61.81
2023-12-18T03:53:01.561Z,62.12
2023-12-18T03:54:01.586Z,63.66
2023-12-18T03:55:01.599Z,62.06
2023-12-18T03:56:01.630Z,62.41
2023-12-18T03:57:01.651Z,63.07
2023-12-18T03:58:01.698Z,62.97
2023-12-18T03:59:01.725Z,63.64
2023-12-18T04:00:01.744Z,63.33
2023-12-18T04:01:01.944Z,64.01
2023-12-18T04:02:01.805Z,63.72
2023-12-18T04:03:01.824Z,62.40
2023-12-18T04:04:02.820Z,63.19
2023-12-18T04:05:01.922Z,62.74
2023-12-18T04:06:01.930Z,62.00
2023-12-18T04:07:01.921Z,62.51
2023-12-18T04:08:02.012Z,62.76
2023-12-18T04:09:01.976Z,61.83
2023-12-18T04:10:01.994Z,64.19
2023-12-18T04:11:02.025Z,63.43
2023-12-18T04:12:02.054Z,63.30
2023-12-18T04:13:02.088Z,63.25
2023-12-18T04:14:02.094Z,62.22
2023-12-18T04:15:02.134Z,61.95
2023-12-18T04:16:02.135Z,63.91
2023-12-18T04:17:02.178Z,62.51
2023-12-18T04:18:02.272Z,61.89
2023-12-18T04:19:02.307Z,63.05
2023-12-18T04:20:02.232Z,63.74
2023-12-18T04:21:02.266Z,62.63
2023-12-18T04:22:02.280Z,62.63
2023-12-18T04:23:02.291Z,62.24
2023-12-18T04:24:02.318Z,64.85
2023-12-18T04:25:02.341Z,61.67
2023-12-18T04:26:02.360Z,63.64
2023-12-18T04:27:02.377Z,62.80
2023-12-18T04:28:02.437Z,61.05
2023-12-18T04:29:02.412Z,62.62
2023-12-18T04:30:02.444Z,63.11
2023-12-18T04:31:02.521Z,61.45
2023-12-18T04:32:02.463Z,63.49
2023-12-18T04:33:02.566Z,62.91
2023-12-18T04:34:02.614Z,63.68
2023-12-18T04:35:02.537Z,63.83
2023-12-18T04:36:02.529Z,62.87
2023-12-18T04:37:04.003Z,63.20
2023-12-18T04:38:02.595Z,64.03
2023-12-18T04:39:03.016Z,62.83
2023-12-18T04:40:10.310Z,50.00
2023-12-18T04:41:10.230Z,50.00
2023-12-18T04:42:10.233Z,50.00
2023-12-18T04:43:10.231Z,50.00
2023-12-18T04:44:10.251Z,50.00
2023-12-18T04:45:10.386Z,53.32
2023-12-18T04:46:10.256Z,50.79
2023-12-18T04:47:10.267Z,50.00
2023-12-18T04:48:10.417Z,50.11
2023-12-18T04:49:10.430Z,50.04
2023-12-18T04:50:10.279Z,53.21
2023-12-18T04:51:10.405Z,53.03
2023-12-18T04:52:10.359Z,52.32
2023-12-18T04:53:10.289Z,51.37
2023-12-18T04:54:10.400Z,50.00
2023-12-18T04:55:10.298Z,51.26
2023-12-18T04:56:10.307Z,53.79
2023-12-18T04:57:10.317Z,52.88
2023-12-18T04:58:10.299Z,52.57
2023-12-18T04:59:10.317Z,53.75
2023-12-18T05:00:10.425Z,51.16
2023-12-18T05:01:10.377Z,52.46
2023-12-18T05:02:10.343Z,51.73
2023-12-18T05:03:10.464Z,52.49
2023-12-18T05:04:10.539Z,50.13
2023-12-18T05:05:10.359Z,50.99
2023-12-18T05:06:10.367Z,54.01
2023-12-18T05:07:10.338Z,51.08
2023-12-18T05:08:10.332Z,51.00
2023-12-18T05:09:10.371Z,53.15
2023-12-18T05:10:10.331Z,53.23
2023-12-18T05:11:10.319Z,51.67
2023-12-18T05:12:10.371Z,52.36
2023-12-18T05:13:10.322Z,51.65
2023-12-18T05:14:10.331Z,51.50
2023-12-18T05:15:11.189Z,50.26
2023-12-18T05:16:10.343Z,53.67
2023-12-18T05:17:10.376Z,52.21
2023-12-18T05:18:10.532Z,51.16
2023-12-18T05:19:10.466Z,51.79
2023-12-18T05:20:10.459Z,52.26
2023-12-18T05:21:10.362Z,53.22
2023-12-18T05:22:10.366Z,52.12
2023-12-18T05:23:10.361Z,50.00
2023-12-18T05:24:10.402Z,52.98
2023-12-18T05:25:10.364Z,51.57
2023-12-18T05:26:10.372Z,53.10
2023-12-18T05:27:10.412Z,50.00
2023-12-18T05:28:10.394Z,51.98
2023-12-18T05:29:10.389Z,52.29
2023-12-18T05:30:10.535Z,52.39
2023-12-18T05:31:10.482Z,53.04
2023-12-18T05:32:10.393Z,51.79
2023-12-18T05:33:10.504Z,50.21
2023-12-18T05:34:10.523Z,52.97
2023-12-18T05:35:10.422Z,53.19
2023-12-18T05:36:10.498Z,52.67
2023-12-18T05:37:10.412Z,54.32
2023-12-18T05:38:10.419Z,51.54
2023-12-18T05:39:10.497Z,52.95
2023-12-18T05:40:10.445Z,53.70
2023-12-18T05:41:10.459Z,54.19
2023-12-18T05:42:10.477Z,51.83
2023-12-18T05:43:11.374Z,52.56
2023-12-18T05:44:10.461Z,53.63
2023-12-18T05:45:10.537Z,51.38
2023-12-18T05:46:10.476Z,52.76
2023-12-18T05:47:10.485Z,52.99
2023-12-18T05:48:10.602Z,52.77
2023-12-18T05:49:10.564Z,52.12
2023-12-18T05:50:10.500Z,53.77
2023-12-18T05:51:10.534Z,53.95
2023-12-18T05:52:10.497Z,53.00
2023-12-18T05:53:10.530Z,51.89
2023-12-18T05:54:10.520Z,53.77
2023-12-18T05:55:10.509Z,52.81
2023-12-18T05:56:10.518Z,51.71
2023-12-18T05:57:10.561Z,53.72
2023-12-18T05:58:10.541Z,52.93
2023-12-18T05:59:10.548Z,52.26
2023-12-18T06:00:10.611Z,52.10
2023-12-18T06:01:10.636Z,52.87
2023-12-18T06:02:10.557Z,53.73
2023-12-18T06:03:10.695Z,51.89
2023-12-18T06:04:10.664Z,51.64
2023-12-18T06:05:10.594Z,54.33
2023-12-18T06:06:10.764Z,52.55
2023-12-18T06:07:10.630Z,52.80
2023-12-18T06:08:10.599Z,51.43
2023-12-18T06:09:10.626Z,53.83
2023-12-18T06:10:10.596Z,52.04
2023-12-18T06:11:10.600Z,53.01
2023-12-18T06:12:10.611Z,51.06
2023-12-18T06:13:10.605Z,53.58
2023-12-18T06:14:10.613Z,53.42
2023-12-18T06:15:10.638Z,54.93
2023-12-18T06:16:10.620Z,52.05
2023-12-18T06:17:10.612Z,53.00
2023-12-18T06:18:10.776Z,53.09
2023-12-18T06:19:10.688Z,54.11
2023-12-18T06:20:10.620Z,51.70
2023-12-18T06:21:10.687Z,52.31
2023-12-18T06:22:10.623Z,51.50
2023-12-18T06:23:10.605Z,52.86
2023-12-18T06:24:10.662Z,52.41
2023-12-18T06:25:11.309Z,52.02
2023-12-18T06:26:10.622Z,50.64
2023-12-18T06:27:10.686Z,51.65
2023-12-18T06:28:10.688Z,52.71
2023-12-18T06:29:10.620Z,53.12
2023-12-18T06:30:10.766Z,53.39
2023-12-18T06:31:10.800Z,52.23
2023-12-18T06:32:13.187Z,52.49
2023-12-18T06:33:10.889Z,51.92
2023-12-18T06:34:10.739Z,51.12
2023-12-18T06:35:10.631Z,53.71
2023-12-18T06:36:11.411Z,51.43
2023-12-18T06:37:10.593Z,51.54
2023-12-18T06:38:11.323Z,51.72
2023-12-18T06:39:10.634Z,52.01
2023-12-18T06:40:10.658Z,52.54
2023-12-18T06:41:10.572Z,53.28
2023-12-18T06:42:10.600Z,54.44
2023-12-18T06:43:10.564Z,53.46
2023-12-18T06:44:10.561Z,52.97
2023-12-18T06:45:10.668Z,53.90
2023-12-18T06:46:11.725Z,51.73
2023-12-18T06:47:10.534Z,51.51
2023-12-18T06:48:10.713Z,52.97
2023-12-18T06:49:10.725Z,50.89
2023-12-18T06:50:10.545Z,50.60
2023-12-18T06:51:10.592Z,50.14
2023-12-18T06:52:10.538Z,50.70
2023-12-18T06:53:10.569Z,52.52
2023-12-18T06:54:10.584Z,52.12
2023-12-18T06:55:10.585Z,51.96
2023-12-18T06:56:10.594Z,51.83
2023-12-18T06:57:10.628Z,52.27
2023-12-18T06:58:10.596Z,52.01
2023-12-18T06:59:10.612Z,54.10
2023-12-18T07:00:10.636Z,53.02
2023-12-18T07:01:10.722Z,52.12
2023-12-18T07:02:10.644Z,51.31
2023-12-18T07:03:10.778Z,51.42
2023-12-18T07:04:10.765Z,51.61
2023-12-18T07:05:10.717Z,51.78
2023-12-18T07:06:10.672Z,53.79
2023-12-18T07:07:10.647Z,54.25
2023-12-18T07:08:10.632Z,53.21
2023-12-18T07:09:10.743Z,53.07
2023-12-18T07:10:10.729Z,53.57
2023-12-18T07:11:10.636Z,53.76
2023-12-18T07:12:10.704Z,52.54
2023-12-18T07:13:10.631Z,55.11
2023-12-18T07:14:10.653Z,54.29
2023-12-18T07:15:10.703Z,54.38
2023-12-18T07:16:10.654Z,53.81
2023-12-18T07:17:10.700Z,53.37
2023-12-18T07:18:10.805Z,53.28
2023-12-18T07:19:10.813Z,56.14
2023-12-18T07:20:10.663Z,53.54
2023-12-18T07:21:10.701Z,51.57
2023-12-18T07:22:10.652Z,53.73
2023-12-18T07:23:10.631Z,55.69
2023-12-18T07:24:10.685Z,52.11
2023-12-18T07:25:10.637Z,54.25
2023-12-18T07:26:11.333Z,56.11
2023-12-18T07:27:10.710Z,65.17
2023-12-18T07:28:10.702Z,77.31
2023-12-18T07:29:10.662Z,85.15
2023-12-18T07:30:10.839Z,92.32
2023-12-18T07:31:10.829Z,97.11
2023-12-18T07:32:10.712Z,102.27
2023-12-18T07:33:10.938Z,94.56
2023-12-18T07:34:10.890Z,90.58
2023-12-18T07:35:10.789Z,80.80
2023-12-18T07:36:10.868Z,75.54
2023-12-18T07:37:10.850Z,68.73
2023-12-18T07:38:10.843Z,65.18
2023-12-18T07:39:10.903Z,61.20
2023-12-18T07:40:10.986Z,56.70
2023-12-18T07:41:11.057Z,54.18
2023-12-18T07:42:11.210Z,55.92
2023-12-18T07:43:11.196Z,56.57
2023-12-18T07:44:11.257Z,55.40
2023-12-18T07:45:11.335Z,55.13
2023-12-18T07:46:11.378Z,53.19
2023-12-18T07:47:11.421Z,57.98
2023-12-18T07:48:11.655Z,54.37
2023-12-18T07:49:11.684Z,55.88
2023-12-18T07:50:11.541Z,56.35
2023-12-18T07:51:11.618Z,57.84
2023-12-18T07:52:11.607Z,57.94
2023-12-18T07:53:11.637Z,60.67
2023-12-18T07:54:11.645Z,62.31
2023-12-18T07:55:11.687Z,62.53
2023-12-18T07:56:12.342Z,63.72
2023-12-18T07:57:11.741Z,64.89
2023-12-18T07:58:11.709Z,65.77
2023-12-18T07:59:11.714Z,65.65
2023-12-18T08:00:11.803Z,66.38
2023-12-18T08:01:11.928Z,65.97
2023-12-18T08:02:11.772Z,69.69
2023-12-18T08:03:11.861Z,70.90
2023-12-18T08:04:11.945Z,68.95
2023-12-18T08:05:11.917Z,71.47
2023-12-18T08:06:11.867Z,72.32
2023-12-18T08:07:11.865Z,74.52
2023-12-18T08:08:11.911Z,75.46
2023-12-18T08:09:11.956Z,77.24
2023-12-18T08:10:11.961Z,77.95
2023-12-18T08:11:11.981Z,80.23
2023-12-18T08:12:12.082Z,74.17
2023-12-18T08:13:12.077Z,72.13
2023-12-18T08:14:12.146Z,68.47
2023-12-18T08:15:12.173Z,68.29
2023-12-18T08:16:12.202Z,70.16
2023-12-18T08:17:12.251Z,73.29
2023-12-18T08:18:12.402Z,72.49
2023-12-18T08:19:12.511Z,73.29
2023-12-18T08:20:12.428Z,73.27
2023-12-18T08:21:12.451Z,72.90
2023-12-18T08:22:12.452Z,73.58
2023-12-18T08:23:12.536Z,72.11
2023-12-18T08:24:13.387Z,73.26
2023-12-18T08:25:12.578Z,72.26
2023-12-18T08:26:12.585Z,70.41
2023-12-18T08:27:12.626Z,70.46
2023-12-18T08:28:12.729Z,71.38
2023-12-18T08:29:12.654Z,69.10
2023-12-18T08:30:13.471Z,70.41
2023-12-18T08:31:12.851Z,69.67
2023-12-18T08:32:12.729Z,71.16
2023-12-18T08:33:12.819Z,70.20
2023-12-18T08:34:12.851Z,72.45
2023-12-18T08:35:12.806Z,70.56
2023-12-18T08:36:12.836Z,70.69
2023-12-18T08:37:12.825Z,69.55
2023-12-18T08:38:12.838Z,70.04
2023-12-18T08:39:13.501Z,68.22
2023-12-18T08:40:12.883Z,69.45
2023-12-18T08:41:12.899Z,71.10
2023-12-18T08:42:12.936Z,70.15
2023-12-18T08:43:12.929Z,70.07
2023-12-18T08:44:12.933Z,69.43
2023-12-18T08:45:13.938Z,70.20
2023-12-18T08:46:12.965Z,69.65
2023-12-18T08:47:12.978Z,69.78
2023-12-18T08:48:13.100Z,67.70
2023-12-18T08:49:13.127Z,67.90
2023-12-18T08:50:13.024Z,71.65
2023-12-18T08:51:14.034Z,69.26
2023-12-18T08:52:13.084Z,70.44
2023-12-18T08:53:13.073Z,69.77
2023-12-18T08:54:13.104Z,68.59
2023-12-18T08:55:13.093Z,70.75
2023-12-18T08:56:13.099Z,70.00
2023-12-18T08:57:13.167Z,69.28
2023-12-18T08:58:13.127Z,69.54
2023-12-18T08:59:13.139Z,69.62
2023-12-18T09:00:13.206Z,67.94
2023-12-18T09:01:13.297Z,70.20
2023-12-18T09:02:13.168Z,70.53
2023-12-18T09:03:13.414Z,70.45
2023-12-18T09:04:13.244Z,71.12
2023-12-18T09:05:13.923Z,68.73
2023-12-18T09:06:13.379Z,68.98
2023-12-18T09:07:13.269Z,68.55
2023-12-18T09:08:13.239Z,67.95
2023-12-18T09:09:13.295Z,67.41
2023-12-18T09:10:13.263Z,67.96
2023-12-18T09:11:14.867Z,68.10
2023-12-18T09:12:13.334Z,70.60
2023-12-18T09:13:13.275Z,68.20
2023-12-18T09:14:13.946Z,67.68
2023-12-18T09:15:13.357Z,66.63
2023-12-18T09:16:13.361Z,65.98
2023-12-18T09:17:13.952Z,67.52
2023-12-18T09:18:13.540Z,66.38
2023-12-18T09:19:13.529Z,66.88
2023-12-18T09:20:13.505Z,64.92
2023-12-18T09:21:13.565Z,66.53
2023-12-18T09:22:13.591Z,64.57
2023-12-18T09:23:13.602Z,67.58
2023-12-18T09:24:13.670Z,64.66
2023-12-18T09:25:13.958Z,66.51
2023-12-18T09:26:13.725Z,65.65
2023-12-18T09:27:13.794Z,65.22
2023-12-18T09:28:13.794Z,66.58
2023-12-18T09:29:13.916Z,65.56
2023-12-18T09:30:13.959Z,66.34
2023-12-18T09:31:13.990Z,64.81
2023-12-18T09:32:14.076Z,64.27
2023-12-18T09:33:14.337Z,67.34
2023-12-18T09:34:14.519Z,62.98
2023-12-18T09:35:14.222Z,68.05
2023-12-18T09:36:14.311Z,65.80
2023-12-18T09:37:14.330Z,65.11
2023-12-18T09:38:14.374Z,65.90
2023-12-18T09:39:14.459Z,67.04
2023-12-18T09:40:14.516Z,65.25
2023-12-18T09:41:14.570Z,67.43
2023-12-18T09:42:17.443Z,67.86
2023-12-18T09:43:14.627Z,67.15
2023-12-18T09:44:14.629Z,66.73
2023-12-18T09:45:14.639Z,66.63
2023-12-18T09:46:14.597Z,65.85
2023-12-18T09:47:14.600Z,68.79
2023-12-18T09:48:16.036Z,67.01
2023-12-18T09:49:14.627Z,68.20
2023-12-18T09:50:14.542Z,67.47
2023-12-18T09:51:14.559Z,66.71
2023-12-18T09:52:14.519Z,67.92
2023-12-18T09:53:14.529Z,65.82
2023-12-18T09:54:15.951Z,67.72
2023-12-18T09:55:14.615Z,65.02
2023-12-18T09:56:14.684Z,66.65
2023-12-18T09:57:14.732Z,67.21
2023-12-18T09:58:14.773Z,67.16
2023-12-18T09:59:14.833Z,66.81
2023-12-18T10:00:16.987Z,67.29
2023-12-18T10:01:14.926Z,66.09
2023-12-18T10:02:14.864Z,66.99
2023-12-18T10:03:14.990Z,69.21
2023-12-18T10:04:14.878Z,66.24
2023-12-18T10:05:14.911Z,67.07
2023-12-18T10:06:16.876Z,67.30
2023-12-18T10:07:14.832Z,67.38
2023-12-18T10:08:14.813Z,67.35
2023-12-18T10:09:14.879Z,67.54
2023-12-18T10:10:14.815Z,67.04
2023-12-18T10:11:14.807Z,67.53
2023-12-18T10:12:14.912Z,66.49
2023-12-18T10:13:14.846Z,66.52
2023-12-18T10:14:14.793Z,68.01
2023-12-18T10:15:14.800Z,67.41
2023-12-18T10:16:14.776Z,67.88
2023-12-18T10:17:14.757Z,67.23
2023-12-18T10:18:17.038Z,67.28
2023-12-18T10:19:14.805Z,67.36
2023-12-18T10:20:14.750Z,67.49
2023-12-18T10:21:14.726Z,66.62
2023-12-18T10:22:14.696Z,66.81
2023-12-18T10:23:14.687Z,64.97
2023-12-18T10:24:14.692Z,67.40
2023-12-18T10:25:14.665Z,66.95
2023-12-18T10:26:14.681Z,67.01
2023-12-18T10:27:14.669Z,66.94
2023-12-18T10:28:14.648Z,67.24
2023-12-18T10:29:14.675Z,65.01
2023-12-18T10:30:16.827Z,67.31
2023-12-18T10:31:14.661Z,67.35
2023-12-18T10:32:14.620Z,67.80
2023-12-18T10:33:14.708Z,67.65
2023-12-18T10:34:14.654Z,68.38
2023-12-18T10:35:14.605Z,68.89
2023-12-18T10:36:15.069Z,68.73
2023-12-18T10:37:14.603Z,69.93
2023-12-18T10:38:14.585Z,68.73
2023-12-18T10:39:14.619Z,69.49
2023-12-18T10:40:14.564Z,69.16
2023-12-18T10:41:14.559Z,67.50
2023-12-18T10:42:14.567Z,68.70
2023-12-18T10:43:14.549Z,68.64
2023-12-18T10:44:14.543Z,68.97
2023-12-18T10:45:14.574Z,68.44
2023-12-18T10:46:14.541Z,69.61
2023-12-18T10:47:15.225Z,69.33
2023-12-18T10:48:14.531Z,69.83
2023-12-18T10:49:14.562Z,70.15
2023-12-18T10:50:14.497Z,68.35
2023-12-18T10:51:14.508Z,69.38
2023-12-18T10:52:14.495Z,69.02
2023-12-18T10:53:14.483Z,67.89
2023-12-18T10:54:14.490Z,69.26
2023-12-18T10:55:14.489Z,71.01
2023-12-18T10:56:14.521Z,67.77
2023-12-18T10:57:14.573Z,69.16
2023-12-18T10:58:14.601Z,67.86
2023-12-18T10:59:14.645Z,69.93
2023-12-18T11:00:14.732Z,68.44
2023-12-18T11:01:14.765Z,69.90
2023-12-18T11:02:14.780Z,68.46
2023-12-18T11:03:15.009Z,68.73
2023-12-18T11:04:15.872Z,68.84
2023-12-18T11:05:14.863Z,69.03
2023-12-18T11:06:15.586Z,69.27
2023-12-18T11:07:14.813Z,69.08
2023-12-18T11:08:14.806Z,72.07
2023-12-18T11:09:14.847Z,69.22
2023-12-18T11:10:14.782Z,69.20
2023-12-18T11:11:14.770Z,69.15
2023-12-18T11:12:14.794Z,69.47
2023-12-18T11:13:14.796Z,69.60
2023-12-18T11:14:14.928Z,70.86
2023-12-18T11:15:15.422Z,69.90
2023-12-18T11:16:14.928Z,68.73
2023-12-18T11:17:14.971Z,69.94
2023-12-18T11:18:15.338Z,69.65
2023-12-18T11:19:20.006Z,69.96
2023-12-18T11:20:16.187Z,70.02
2023-12-18T11:21:17.003Z,70.08
2023-12-18T11:22:15.988Z,70.42
2023-12-18T11:23:15.052Z,69.88
2023-12-18T11:24:15.087Z,72.51
2023-12-18T11:25:15.056Z,73.40
2023-12-18T11:26:15.042Z,72.08
2023-12-18T11:27:15.100Z,72.30
2023-12-18T11:28:15.046Z,71.70
2023-12-18T11:29:15.044Z,71.44
2023-12-18T11:30:15.130Z,70.91
2023-12-18T11:31:16.005Z,70.08
2023-12-18T11:32:15.203Z,70.69
2023-12-18T11:33:15.437Z,70.47
2023-12-18T11:34:15.385Z,71.45
2023-12-18T11:35:15.520Z,72.99
2023-12-18T11:36:15.455Z,72.66
2023-12-18T11:37:15.461Z,70.38
2023-12-18T11:38:15.528Z,71.55
2023-12-18T11:39:15.574Z,71.62
2023-12-18T11:40:15.614Z,72.88
2023-12-18T11:41:15.644Z,72.78
2023-12-18T11:42:15.706Z,70.71
2023-12-18T11:43:15.737Z,72.64
2023-12-18T11:44:15.787Z,71.49
2023-12-18T11:45:16.522Z,70.09
2023-12-18T11:46:18.447Z,71.73
2023-12-18T11:47:15.880Z,72.84
2023-12-18T11:48:16.034Z,71.09
2023-12-18T11:49:15.933Z,72.38
2023-12-18T11:50:15.988Z,73.39
2023-12-18T11:51:15.877Z,73.03
2023-12-18T11:52:15.880Z,71.73
2023-12-18T11:53:15.874Z,73.20
2023-12-18T11:54:15.917Z,72.95
2023-12-18T11:55:15.872Z,73.33
2023-12-18T11:56:15.875Z,72.48
2023-12-18T11:57:15.889Z,73.61
2023-12-18T11:58:15.894Z,71.57
2023-12-18T11:59:15.849Z,71.76
2023-12-18T12:00:15.933Z,70.62
2023-12-18T12:01:15.870Z,71.72
2023-12-18T12:02:15.803Z,73.37
2023-12-18T12:03:15.806Z,72.80
2023-12-18T12:04:15.856Z,71.32
2023-12-18T12:05:15.768Z,71.83
2023-12-18T12:06:15.772Z,72.20
2023-12-18T12:07:15.736Z,71.96
2023-12-18T12:08:15.727Z,71.30
2023-12-18T12:09:15.732Z,72.46
2023-12-18T12:10:15.731Z,71.45
2023-12-18T12:11:15.705Z,71.20
2023-12-18T12:12:15.907Z,72.95
2023-12-18T12:13:15.691Z,72.52
2023-12-18T12:14:15.690Z,76.25
2023-12-18T12:15:16.157Z,71.35
2023-12-18T12:16:15.691Z,72.62
2023-12-18T12:17:15.693Z,73.79
2023-12-18T12:18:15.832Z,72.73
2023-12-18T12:19:15.848Z,73.85
2023-12-18T12:20:15.683Z,74.65
2023-12-18T12:21:15.728Z,72.82
2023-12-18T12:22:15.722Z,72.70
2023-12-18T12:23:15.679Z,73.19
2023-12-18T12:24:15.796Z,72.36
2023-12-18T12:25:15.833Z,73.24
2023-12-18T12:26:15.835Z,72.48
2023-12-18T12:27:15.973Z,73.82
2023-12-18T12:28:15.956Z,72.41
2023-12-18T12:29:16.021Z,74.08
2023-12-18T12:30:17.025Z,74.09
2023-12-18T12:31:16.128Z,74.23
2023-12-18T12:32:16.281Z,75.19
2023-12-18T12:33:16.034Z,74.74
2023-12-18T12:34:16.155Z,75.19
2023-12-18T12:35:16.107Z,74.20
2023-12-18T12:36:15.973Z,75.30
2023-12-18T12:37:16.006Z,74.30
2023-12-18T12:38:15.967Z,75.03
2023-12-18T12:39:16.031Z,75.39
2023-12-18T12:40:16.072Z,76.66
2023-12-18T12:41:16.150Z,74.03
2023-12-18T12:42:16.276Z,75.53
2023-12-18T12:43:16.261Z,75.76
2023-12-18T12:44:16.315Z,76.39
2023-12-18T12:45:16.409Z,75.37
2023-12-18T12:46:20.531Z,75.78
2023-12-18T12:47:17.485Z,75.78
2023-12-18T12:48:16.710Z,75.40
2023-12-18T12:49:16.493Z,75.64
2023-12-18T12:50:16.404Z,76.12
2023-12-18T12:51:16.421Z,75.63
2023-12-18T12:52:16.386Z,74.68
2023-12-18T12:53:16.360Z,74.00